sensor_id;sensor_type;location;lat;lon;timestamp;pressure;altitude;pressure_sealevel;temperature;humidity
17607;BME280;69222;52.242;20.980;2023-12-04T00:01:19;100724.28;;;-1.77;88.81
17607;BME280;69222;52.242;20.980;2023-12-04T00:03:47;100723.41;;;-1.78;88.55
17607;BME280;69222;52.242;20.980;2023-12-04T00:06:15;100719.16;;;-1.79;88.79
17607;BME280;69222;52.242;20.980;2023-12-04T00:08:45;100721.84;;;-1.76;89.33
17607;BME280;69222;52.242;20.980;2023-12-04T00:11:13;100716.00;;;-1.75;89.10
17607;BME280;69222;52.242;20.980;2023-12-04T00:13:40;100719.38;;;-1.74;89.12
17607;BME280;69222;52.242;20.980;2023-12-04T00:16:09;100734.84;;;-1.68;89.15
17607;BME280;69222;52.242;20.980;2023-12-04T00:18:37;100734.53;;;-1.74;89.20
17607;BME280;69222;52.242;20.980;2023-12-04T00:21:05;100726.16;;;-1.73;89.68
17607;BME280;69222;52.242;20.980;2023-12-04T00:23:33;100729.50;;;-1.74;90.02
17607;BME280;69222;52.242;20.980;2023-12-04T00:26:03;100732.97;;;-1.72;89.59
17607;BME280;69222;52.242;20.980;2023-12-04T00:28:31;100732.03;;;-1.74;90.01
17607;BME280;69222;52.242;20.980;2023-12-04T00:31:00;100735.72;;;-1.67;89.99
17607;BME280;69222;52.242;20.980;2023-12-04T00:33:28;100734.84;;;-1.68;89.76
17607;BME280;69222;52.242;20.980;2023-12-04T00:35:58;100737.53;;;-1.65;89.83
17607;BME280;69222;52.242;20.980;2023-12-04T00:38:25;100735.16;;;-1.62;89.52
17607;BME280;69222;52.242;20.980;2023-12-04T00:40:53;100736.03;;;-1.61;89.30
17607;BME280;69222;52.242;20.980;2023-12-04T00:43:23;100740.34;;;-1.59;89.49
17607;BME280;69222;52.242;20.980;2023-12-04T00:45:51;100751.56;;;-1.54;89.50
17607;BME280;69222;52.242;20.980;2023-12-04T00:48:19;100751.69;;;-1.51;89.39
17607;BME280;69222;52.242;20.980;2023-12-04T00:50:47;100756.09;;;-1.47;89.23
17607;BME280;69222;52.242;20.980;2023-12-04T00:53:15;100754.44;;;-1.46;88.84
17607;BME280;69222;52.242;20.980;2023-12-04T00:55:43;100743.38;;;-1.48;88.96
17607;BME280;69222;52.242;20.980;2023-12-04T00:58:11;100753.75;;;-1.43;89.08
17607;BME280;69222;52.242;20.980;2023-12-04T01:00:40;100752.78;;;-1.46;88.78
17607;BME280;69222;52.242;20.980;2023-12-04T01:03:08;100751.97;;;-1.44;88.42
17607;BME280;69222;52.242;20.980;2023-12-04T01:05:36;100749.44;;;-1.44;88.41
17607;BME280;69222;52.242;20.980;2023-12-04T01:08:04;100755.38;;;-1.44;88.27
17607;BME280;69222;52.242;20.980;2023-12-04T01:10:33;100760.31;;;-1.47;88.34
17607;BME280;69222;52.242;20.980;2023-12-04T01:13:00;100762.09;;;-1.44;88.33
17607;BME280;69222;52.242;20.980;2023-12-04T01:15:29;100759.56;;;-1.44;88.08
17607;BME280;69222;52.242;20.980;2023-12-04T01:17:58;100758.00;;;-1.42;88.11
17607;BME280;69222;52.242;20.980;2023-12-04T01:20:27;100753.78;;;-1.42;88.23
17607;BME280;69222;52.242;20.980;2023-12-04T01:22:56;100765.78;;;-1.38;88.08
17607;BME280;69222;52.242;20.980;2023-12-04T01:25:24;100763.25;;;-1.38;88.16
17607;BME280;69222;52.242;20.980;2023-12-04T01:27:52;100760.16;;;-1.32;87.98
17607;BME280;69222;52.242;20.980;2023-12-04T01:30:20;100766.28;;;-1.27;87.59
17607;BME280;69222;52.242;20.980;2023-12-04T01:32:48;100774.75;;;-1.27;87.38
17607;BME280;69222;52.242;20.980;2023-12-04T01:35:17;100775.69;;;-1.25;87.48
17607;BME280;69222;52.242;20.980;2023-12-04T01:37:46;100774.84;;;-1.25;87.14
17607;BME280;69222;52.242;20.980;2023-12-04T01:40:13;100776.56;;;-1.24;87.04
17607;BME280;69222;52.242;20.980;2023-12-04T01:42:42;100771.34;;;-1.27;86.80
17607;BME280;69222;52.242;20.980;2023-12-04T01:45:10;100783.19;;;-1.26;86.89
17607;BME280;69222;52.242;20.980;2023-12-04T01:47:38;100776.47;;;-1.26;86.77
17607;BME280;69222;52.242;20.980;2023-12-04T01:50:07;100770.69;;;-1.23;86.59
17607;BME280;69222;52.242;20.980;2023-12-04T01:52:37;100773.06;;;-1.26;86.49
17607;BME280;69222;52.242;20.980;2023-12-04T01:55:06;100787.47;;;-1.25;86.36
17607;BME280;69222;52.242;20.980;2023-12-04T01:57:36;100789.09;;;-1.26;86.20
17607;BME280;69222;52.242;20.980;2023-12-04T02:00:05;100794.09;;;-1.27;85.90
17607;BME280;69222;52.242;20.980;2023-12-04T02:02:38;100803.19;;;-1.31;85.49
17607;BME280;69222;52.242;20.980;2023-12-04T02:05:07;100815.78;;;-1.32;85.65
17607;BME280;69222;52.242;20.980;2023-12-04T02:07:37;100798.69;;;-1.36;85.39
17607;BME280;69222;52.242;20.980;2023-12-04T02:10:05;100811.88;;;-1.43;84.93
17607;BME280;69222;52.242;20.980;2023-12-04T02:12:34;100811.41;;;-1.53;84.75
17607;BME280;69222;52.242;20.980;2023-12-04T02:15:03;100809.50;;;-1.57;84.93
17607;BME280;69222;52.242;20.980;2023-12-04T02:17:32;100809.28;;;-1.61;84.04
17607;BME280;69222;52.242;20.980;2023-12-04T02:20:01;100803.88;;;-1.69;84.56
17607;BME280;69222;52.242;20.980;2023-12-04T02:22:30;100813.88;;;-1.71;84.18
17607;BME280;69222;52.242;20.980;2023-12-04T02:24:59;100812.06;;;-1.73;84.34
17607;BME280;69222;52.242;20.980;2023-12-04T02:27:29;100806.88;;;-1.76;84.03
17607;BME280;69222;52.242;20.980;2023-12-04T02:30:01;100801.66;;;-1.79;83.83
17607;BME280;69222;52.242;20.980;2023-12-04T02:32:31;100803.22;;;-1.81;84.03
17607;BME280;69222;52.242;20.980;2023-12-04T02:35:03;100812.47;;;-1.82;84.11
17607;BME280;69222;52.242;20.980;2023-12-04T02:37:32;100815.63;;;-1.86;83.93
17607;BME280;69222;52.242;20.980;2023-12-04T02:40:04;100818.81;;;-1.90;83.79
17607;BME280;69222;52.242;20.980;2023-12-04T02:42:33;100816.91;;;-1.94;84.29
17607;BME280;69222;52.242;20.980;2023-12-04T02:45:01;100816.19;;;-1.91;83.98
17607;BME280;69222;52.242;20.980;2023-12-04T02:47:29;100821.22;;;-1.91;83.62
17607;BME280;69222;52.242;20.980;2023-12-04T02:49:57;100814.28;;;-1.96;83.11
17607;BME280;69222;52.242;20.980;2023-12-04T02:52:25;100818.63;;;-1.93;83.50
17607;BME280;69222;52.242;20.980;2023-12-04T02:54:53;100812.03;;;-1.91;83.35
17607;BME280;69222;52.242;20.980;2023-12-04T02:57:22;100820.25;;;-1.95;82.63
17607;BME280;69222;52.242;20.980;2023-12-04T02:59:50;100820.84;;;-1.99;83.02
17607;BME280;69222;52.242;20.980;2023-12-04T03:02:18;100827.81;;;-1.95;83.08
17607;BME280;69222;52.242;20.980;2023-12-04T03:04:46;100825.41;;;-1.92;82.91
17607;BME280;69222;52.242;20.980;2023-12-04T03:07:14;100828.81;;;-1.91;82.84
17607;BME280;69222;52.242;20.980;2023-12-04T03:09:42;100832.13;;;-1.92;82.67
17607;BME280;69222;52.242;20.980;2023-12-04T03:12:15;100833.94;;;-1.90;82.84
17607;BME280;69222;52.242;20.980;2023-12-04T03:14:44;100837.50;;;-1.86;82.76
17607;BME280;69222;52.242;20.980;2023-12-04T03:17:12;100845.09;;;-1.86;83.16
17607;BME280;69222;52.242;20.980;2023-12-04T03:19:40;100825.50;;;-1.90;82.78
17607;BME280;69222;52.242;20.980;2023-12-04T03:22:08;100835.63;;;-1.90;83.08
17607;BME280;69222;52.242;20.980;2023-12-04T03:24:36;100842.31;;;-1.91;83.45
17607;BME280;69222;52.242;20.980;2023-12-04T03:27:04;100830.41;;;-1.93;83.21
17607;BME280;69222;52.242;20.980;2023-12-04T03:29:32;100847.13;;;-1.96;83.65
17607;BME280;69222;52.242;20.980;2023-12-04T03:32:01;100843.50;;;-2.01;83.94
17607;BME280;69222;52.242;20.980;2023-12-04T03:34:29;100847.75;;;-2.00;84.08
17607;BME280;69222;52.242;20.980;2023-12-04T03:36:57;100852.97;;;-1.97;84.49
17607;BME280;69222;52.242;20.980;2023-12-04T03:39:25;100863.22;;;-1.93;84.54
17607;BME280;69222;52.242;20.980;2023-12-04T03:41:53;100858.03;;;-1.97;84.17
17607;BME280;69222;52.242;20.980;2023-12-04T03:44:22;100864.03;;;-1.95;84.05
17607;BME280;69222;52.242;20.980;2023-12-04T03:46:49;100856.47;;;-1.95;84.04
17607;BME280;69222;52.242;20.980;2023-12-04T03:49:19;100865.53;;;-1.98;83.94
17607;BME280;69222;52.242;20.980;2023-12-04T03:51:47;100869.56;;;-2.02;83.47
17607;BME280;69222;52.242;20.980;2023-12-04T03:54:15;100866.75;;;-2.06;83.91
17607;BME280;69222;52.242;20.980;2023-12-04T03:56:43;100859.97;;;-2.07;84.09
17607;BME280;69222;52.242;20.980;2023-12-04T03:59:11;100871.03;;;-2.05;84.25
17607;BME280;69222;52.242;20.980;2023-12-04T04:01:39;100864.34;;;-2.05;83.66
17607;BME280;69222;52.242;20.980;2023-12-04T04:04:07;100865.19;;;-2.04;83.55
17607;BME280;69222;52.242;20.980;2023-12-04T04:06:36;100862.59;;;-2.06;83.36
17607;BME280;69222;52.242;20.980;2023-12-04T04:09:05;100870.81;;;-2.10;83.27
17607;BME280;69222;52.242;20.980;2023-12-04T04:11:33;100872.38;;;-2.12;83.64
17607;BME280;69222;52.242;20.980;2023-12-04T04:14:00;100860.72;;;-2.10;83.67
17607;BME280;69222;52.242;20.980;2023-12-04T04:16:28;100874.03;;;-2.12;83.71
17607;BME280;69222;52.242;20.980;2023-12-04T04:18:56;100867.31;;;-2.12;83.36
17607;BME280;69222;52.242;20.980;2023-12-04T04:21:24;100873.34;;;-2.10;83.32
17607;BME280;69222;52.242;20.980;2023-12-04T04:23:53;100863.84;;;-2.14;83.14
17607;BME280;69222;52.242;20.980;2023-12-04T04:26:21;100868.13;;;-2.13;83.49
17607;BME280;69222;52.242;20.980;2023-12-04T04:28:49;100870.31;;;-2.19;82.87
17607;BME280;69222;52.242;20.980;2023-12-04T04:31:17;100872.84;;;-2.19;83.22
17607;BME280;69222;52.242;20.980;2023-12-04T04:33:45;100871.50;;;-2.12;83.47
17607;BME280;69222;52.242;20.980;2023-12-04T04:36:13;100876.00;;;-2.07;83.03
17607;BME280;69222;52.242;20.980;2023-12-04T04:38:41;100872.22;;;-2.15;82.37
17607;BME280;69222;52.242;20.980;2023-12-04T04:41:14;100878.97;;;-2.14;82.64
17607;BME280;69222;52.242;20.980;2023-12-04T04:43:42;100884.81;;;-2.15;82.07
17607;BME280;69222;52.242;20.980;2023-12-04T04:46:10;100888.16;;;-2.16;82.56
17607;BME280;69222;52.242;20.980;2023-12-04T04:48:39;100881.28;;;-2.19;82.20
17607;BME280;69222;52.242;20.980;2023-12-04T04:51:07;100884.81;;;-2.15;82.31
17607;BME280;69222;52.242;20.980;2023-12-04T04:53:35;100881.44;;;-2.15;82.28
17607;BME280;69222;52.242;20.980;2023-12-04T04:56:04;100884.03;;;-2.14;82.48
17607;BME280;69222;52.242;20.980;2023-12-04T04:58:33;100883.72;;;-2.20;82.07
17607;BME280;69222;52.242;20.980;2023-12-04T05:01:01;100883.91;;;-2.17;82.06
17607;BME280;69222;52.242;20.980;2023-12-04T05:03:29;100880.25;;;-2.22;82.21
17607;BME280;69222;52.242;20.980;2023-12-04T05:05:57;100876.06;;;-2.22;82.32
17607;BME280;69222;52.242;20.980;2023-12-04T05:08:25;100887.97;;;-2.19;82.28
17607;BME280;69222;52.242;20.980;2023-12-04T05:10:53;100880.25;;;-2.22;82.32
17607;BME280;69222;52.242;20.980;2023-12-04T05:13:21;100891.94;;;-2.24;82.20
17607;BME280;69222;52.242;20.980;2023-12-04T05:15:50;100900.25;;;-2.25;82.60
17607;BME280;69222;52.242;20.980;2023-12-04T05:18:18;100899.16;;;-2.30;82.47
17607;BME280;69222;52.242;20.980;2023-12-04T05:20:46;100903.41;;;-2.29;82.89
17607;BME280;69222;52.242;20.980;2023-12-04T05:23:14;100904.56;;;-2.24;83.17
17607;BME280;69222;52.242;20.980;2023-12-04T05:25:42;100907.94;;;-2.24;82.56
17607;BME280;69222;52.242;20.980;2023-12-04T05:28:15;100904.44;;;-2.26;82.26
17607;BME280;69222;52.242;20.980;2023-12-04T05:30:43;100893.66;;;-2.23;82.53
17607;BME280;69222;52.242;20.980;2023-12-04T05:33:13;100900.25;;;-2.25;82.55
17607;BME280;69222;52.242;20.980;2023-12-04T05:35:41;100908.56;;;-2.28;82.67
17607;BME280;69222;52.242;20.980;2023-12-04T05:38:08;100900.81;;;-2.31;82.66
17607;BME280;69222;52.242;20.980;2023-12-04T05:40:36;100905.31;;;-2.25;82.88
17607;BME280;69222;52.242;20.980;2023-12-04T05:43:04;100907.84;;;-2.25;82.55
17607;BME280;69222;52.242;20.980;2023-12-04T05:45:32;100896.00;;;-2.26;82.48
17607;BME280;69222;52.242;20.980;2023-12-04T05:48:00;100914.53;;;-2.26;82.81
17607;BME280;69222;52.242;20.980;2023-12-04T05:50:29;100907.19;;;-2.37;82.86
17607;BME280;69222;52.242;20.980;2023-12-04T05:52:57;100911.19;;;-2.41;83.21
17607;BME280;69222;52.242;20.980;2023-12-04T05:55:25;100905.19;;;-2.43;82.83
17607;BME280;69222;52.242;20.980;2023-12-04T05:57:53;100919.75;;;-2.39;83.70
17607;BME280;69222;52.242;20.980;2023-12-04T06:00:22;100918.78;;;-2.41;83.34
17607;BME280;69222;52.242;20.980;2023-12-04T06:02:54;100914.69;;;-2.39;83.67
17607;BME280;69222;52.242;20.980;2023-12-04T06:05:22;100918.94;;;-2.38;83.55
17607;BME280;69222;52.242;20.980;2023-12-04T06:07:52;100919.97;;;-2.34;83.41
17607;BME280;69222;52.242;20.980;2023-12-04T06:10:20;100910.06;;;-2.31;83.36
17607;BME280;69222;52.242;20.980;2023-12-04T06:12:48;100924.34;;;-2.32;82.74
17607;BME280;69222;52.242;20.980;2023-12-04T06:15:16;100922.69;;;-2.31;82.96
17607;BME280;69222;52.242;20.980;2023-12-04T06:17:44;100924.66;;;-2.26;83.54
17607;BME280;69222;52.242;20.980;2023-12-04T06:20:12;100924.13;;;-2.20;82.99
17607;BME280;69222;52.242;20.980;2023-12-04T06:22:40;100923.94;;;-2.23;82.51
17607;BME280;69222;52.242;20.980;2023-12-04T06:25:11;100927.97;;;-2.27;82.10
17607;BME280;69222;52.242;20.980;2023-12-04T06:27:40;100928.81;;;-2.26;82.53
17607;BME280;69222;52.242;20.980;2023-12-04T06:30:08;100923.38;;;-2.34;82.35
17607;BME280;69222;52.242;20.980;2023-12-04T06:32:37;100932.59;;;-2.34;82.80
17607;BME280;69222;52.242;20.980;2023-12-04T06:35:06;100934.44;;;-2.32;83.00
17607;BME280;69222;52.242;20.980;2023-12-04T06:37:34;100928.66;;;-2.29;82.79
17607;BME280;69222;52.242;20.980;2023-12-04T06:40:05;100934.56;;;-2.29;82.49
17607;BME280;69222;52.242;20.980;2023-12-04T06:42:37;100942.41;;;-2.24;82.52
17607;BME280;69222;52.242;20.980;2023-12-04T06:45:06;100942.47;;;-2.23;82.48
17607;BME280;69222;52.242;20.980;2023-12-04T06:47:35;100938.00;;;-2.28;82.36
17607;BME280;69222;52.242;20.980;2023-12-04T06:50:05;100942.06;;;-2.30;82.50
17607;BME280;69222;52.242;20.980;2023-12-04T06:52:33;100939.47;;;-2.32;82.02
17607;BME280;69222;52.242;20.980;2023-12-04T06:55:01;100939.47;;;-2.32;82.20
17607;BME280;69222;52.242;20.980;2023-12-04T06:57:30;100936.34;;;-2.28;82.50
17607;BME280;69222;52.242;20.980;2023-12-04T06:59:59;100940.81;;;-2.22;82.54
17607;BME280;69222;52.242;20.980;2023-12-04T07:02:27;100945.25;;;-2.18;82.34
17607;BME280;69222;52.242;20.980;2023-12-04T07:04:55;100945.41;;;-2.15;82.42
17607;BME280;69222;52.242;20.980;2023-12-04T07:07:23;100933.84;;;-2.11;82.15
17607;BME280;69222;52.242;20.980;2023-12-04T07:09:51;100933.13;;;-2.09;81.81
17607;BME280;69222;52.242;20.980;2023-12-04T07:12:19;100931.25;;;-2.13;82.01
17607;BME280;69222;52.242;20.980;2023-12-04T07:14:48;100931.06;;;-2.16;81.75
17607;BME280;69222;52.242;20.980;2023-12-04T07:17:17;100939.44;;;-2.17;81.68
17607;BME280;69222;52.242;20.980;2023-12-04T07:19:45;100947.78;;;-2.18;81.88
17607;BME280;69222;52.242;20.980;2023-12-04T07:22:13;100947.78;;;-2.18;81.88
17607;BME280;69222;52.242;20.980;2023-12-04T07:24:41;100951.25;;;-2.16;81.64
17607;BME280;69222;52.242;20.980;2023-12-04T07:27:09;100957.41;;;-2.11;81.82
17607;BME280;69222;52.242;20.980;2023-12-04T07:29:38;100957.19;;;-2.15;81.91
17607;BME280;69222;52.242;20.980;2023-12-04T07:32:06;100954.66;;;-2.15;81.74
17607;BME280;69222;52.242;20.980;2023-12-04T07:34:36;100951.09;;;-2.19;81.85
17607;BME280;69222;52.242;20.980;2023-12-04T07:37:04;100949.38;;;-2.20;81.83
17607;BME280;69222;52.242;20.980;2023-12-04T07:39:32;100946.84;;;-2.20;81.55
17607;BME280;69222;52.242;20.980;2023-12-04T07:42:00;100953.69;;;-2.17;81.74
17607;BME280;69222;52.242;20.980;2023-12-04T07:44:38;100962.41;;;-2.12;82.25
17607;BME280;69222;52.242;20.980;2023-12-04T07:47:06;100955.06;;;-2.08;81.60
17607;BME280;69222;52.242;20.980;2023-12-04T07:49:36;100955.31;;;-2.03;81.78
17607;BME280;69222;52.242;20.980;2023-12-04T07:52:04;100967.41;;;-1.98;81.72
17607;BME280;69222;52.242;20.980;2023-12-04T07:54:33;100955.72;;;-1.96;81.50
17607;BME280;69222;52.242;20.980;2023-12-04T07:57:01;100954.31;;;-1.90;81.11
17607;BME280;69222;52.242;20.980;2023-12-04T07:59:29;100957.00;;;-1.87;80.86
17607;BME280;69222;52.242;20.980;2023-12-04T08:01:57;100955.88;;;-1.92;80.86
17607;BME280;69222;52.242;20.980;2023-12-04T08:04:25;100962.81;;;-1.88;80.88
17607;BME280;69222;52.242;20.980;2023-12-04T08:06:55;100970.56;;;-1.85;80.90
17607;BME280;69222;52.242;20.980;2023-12-04T08:09:23;100962.19;;;-1.84;80.45
17607;BME280;69222;52.242;20.980;2023-12-04T08:11:51;100972.41;;;-1.83;80.94
17607;BME280;69222;52.242;20.980;2023-12-04T08:14:23;100966.66;;;-1.80;80.94
17607;BME280;69222;52.242;20.980;2023-12-04T08:16:51;100974.53;;;-1.74;80.46
17607;BME280;69222;52.242;20.980;2023-12-04T08:19:19;100975.56;;;-1.71;80.23
17607;BME280;69222;52.242;20.980;2023-12-04T08:21:47;100975.78;;;-1.82;79.90
17607;BME280;69222;52.242;20.980;2023-12-04T08:24:16;100983.38;;;-1.82;80.29
17607;BME280;69222;52.242;20.980;2023-12-04T08:26:45;100985.09;;;-1.81;80.45
17607;BME280;69222;52.242;20.980;2023-12-04T08:29:13;100984.56;;;-1.76;80.65
17607;BME280;69222;52.242;20.980;2023-12-04T08:31:41;100979.69;;;-1.73;80.14
17607;BME280;69222;52.242;20.980;2023-12-04T08:34:09;100977.22;;;-1.71;80.37
17607;BME280;69222;52.242;20.980;2023-12-04T08:36:37;100973.19;;;-1.67;80.02
17607;BME280;69222;52.242;20.980;2023-12-04T08:39:12;100981.66;;;-1.67;79.89
17607;BME280;69222;52.242;20.980;2023-12-04T08:41:44;100981.56;;;-1.68;79.70
17607;BME280;69222;52.242;20.980;2023-12-04T08:44:26;100987.50;;;-1.68;79.86
17607;BME280;69222;52.242;20.980;2023-12-04T08:46:54;100986.53;;;-1.70;79.74
17607;BME280;69222;52.242;20.980;2023-12-04T08:49:24;100997.59;;;-1.68;80.19
17607;BME280;69222;52.242;20.980;2023-12-04T08:52:05;100996.97;;;-1.64;79.96
17607;BME280;69222;52.242;20.980;2023-12-04T08:54:33;100990.09;;;-1.66;79.52
17607;BME280;69222;52.242;20.980;2023-12-04T08:57:03;100995.47;;;-1.60;79.74
17607;BME280;69222;52.242;20.980;2023-12-04T08:59:32;101003.28;;;-1.56;79.39
17607;BME280;69222;52.242;20.980;2023-12-04T09:02:00;101003.91;;;-1.60;79.43
17607;BME280;69222;52.242;20.980;2023-12-04T09:04:30;101004.72;;;-1.61;79.32
17607;BME280;69222;52.242;20.980;2023-12-04T09:06:59;101003.13;;;-1.59;78.76
17607;BME280;69222;52.242;20.980;2023-12-04T09:09:47;101002.09;;;-1.62;78.94
17607;BME280;69222;52.242;20.980;2023-12-04T09:12:17;101000.47;;;-1.62;78.96
17607;BME280;69222;52.242;20.980;2023-12-04T09:14:45;101004.03;;;-1.58;78.90
17607;BME280;69222;52.242;20.980;2023-12-04T09:17:13;100991.47;;;-1.57;78.56
17607;BME280;69222;52.242;20.980;2023-12-04T09:19:41;100992.31;;;-1.56;78.43
17607;BME280;69222;52.242;20.980;2023-12-04T09:22:09;100993.19;;;-1.56;78.26
17607;BME280;69222;52.242;20.980;2023-12-04T09:24:45;101005.81;;;-1.56;78.23
17607;BME280;69222;52.242;20.980;2023-12-04T09:27:13;100999.97;;;-1.55;78.42
17607;BME280;69222;52.242;20.980;2023-12-04T09:29:42;100995.72;;;-1.56;78.21
17607;BME280;69222;52.242;20.980;2023-12-04T09:32:10;100996.69;;;-1.54;78.06
17607;BME280;69222;52.242;20.980;2023-12-04T09:34:38;101001.56;;;-1.57;77.74
17607;BME280;69222;52.242;20.980;2023-12-04T09:37:06;100995.25;;;-1.65;77.54
17607;BME280;69222;52.242;20.980;2023-12-04T09:39:38;100997.44;;;-1.71;77.81
17607;BME280;69222;52.242;20.980;2023-12-04T09:42:07;100989.78;;;-1.73;78.44
17607;BME280;69222;52.242;20.980;2023-12-04T09:44:36;100992.44;;;-1.70;78.96
17607;BME280;69222;52.242;20.980;2023-12-04T09:47:07;100989.38;;;-1.64;78.88
17607;BME280;69222;52.242;20.980;2023-12-04T09:49:38;100989.16;;;-1.52;78.97
17607;BME280;69222;52.242;20.980;2023-12-04T09:52:06;100985.75;;;-1.53;78.13
17607;BME280;69222;52.242;20.980;2023-12-04T09:54:35;100987.44;;;-1.53;78.02
17607;BME280;69222;52.242;20.980;2023-12-04T09:57:04;100986.72;;;-1.51;78.07
17607;BME280;69222;52.242;20.980;2023-12-04T09:59:32;100986.47;;;-1.55;77.52
17607;BME280;69222;52.242;20.980;2023-12-04T10:02:02;100991.69;;;-1.52;78.52
17607;BME280;69222;52.242;20.980;2023-12-04T10:04:32;100991.91;;;-1.48;78.31
17607;BME280;69222;52.242;20.980;2023-12-04T10:07:00;100988.78;;;-1.43;78.04
17607;BME280;69222;52.242;20.980;2023-12-04T10:09:29;100977.06;;;-1.41;77.96
17607;BME280;69222;52.242;20.980;2023-12-04T10:11:57;100981.22;;;-1.43;77.56
17607;BME280;69222;52.242;20.980;2023-12-04T10:14:25;100980.06;;;-1.49;77.58
17607;BME280;69222;52.242;20.980;2023-12-04T10:16:53;100978.19;;;-1.53;77.98
17607;BME280;69222;52.242;20.980;2023-12-04T10:19:23;100984.19;;;-1.51;78.14
17607;BME280;69222;52.242;20.980;2023-12-04T10:21:57;100971.88;;;-1.44;77.89
17607;BME280;69222;52.242;20.980;2023-12-04T10:24:28;100970.47;;;-1.39;77.70
17607;BME280;69222;52.242;20.980;2023-12-04T10:26:56;100972.63;;;-1.29;77.82
17607;BME280;69222;52.242;20.980;2023-12-04T10:29:27;100968.88;;;-1.21;77.36
17607;BME280;69222;52.242;20.980;2023-12-04T10:31:59;100965.44;;;-1.22;76.95
17607;BME280;69222;52.242;20.980;2023-12-04T10:34:29;100971.53;;;-1.18;77.04
17607;BME280;69222;52.242;20.980;2023-12-04T10:37:02;100966.72;;;-1.13;76.74
17607;BME280;69222;52.242;20.980;2023-12-04T10:39:31;100962.84;;;-1.07;77.27
17607;BME280;69222;52.242;20.980;2023-12-04T10:42:02;100969.00;;;-1.02;76.59
17607;BME280;69222;52.242;20.980;2023-12-04T10:44:31;100968.50;;;-0.94;76.49
17607;BME280;69222;52.242;20.980;2023-12-04T10:47:00;100971.47;;;-0.85;76.46
17607;BME280;69222;52.242;20.980;2023-12-04T10:49:28;100967.44;;;-0.82;75.93
17607;BME280;69222;52.242;20.980;2023-12-04T10:51:58;100961.88;;;-0.75;75.14
17607;BME280;69222;52.242;20.980;2023-12-04T10:54:29;100962.69;;;-0.76;74.80
17607;BME280;69222;52.242;20.980;2023-12-04T10:57:01;100964.41;;;-0.75;74.65
17607;BME280;69222;52.242;20.980;2023-12-04T10:59:32;100963.09;;;-0.66;74.87
17607;BME280;69222;52.242;20.980;2023-12-04T11:02:05;100981.47;;;-0.70;74.10
17607;BME280;69222;52.242;20.980;2023-12-04T11:04:36;100970.34;;;-0.74;74.18
17607;BME280;69222;52.242;20.980;2023-12-04T11:07:06;100976.72;;;-0.64;74.72
17607;BME280;69222;52.242;20.980;2023-12-04T11:09:37;100975.56;;;-0.53;74.02
17607;BME280;69222;52.242;20.980;2023-12-04T11:12:08;100971.88;;;-0.60;73.27
17607;BME280;69222;52.242;20.980;2023-12-04T11:14:42;100969.50;;;-0.57;73.76
17607;BME280;69222;52.242;20.980;2023-12-04T11:17:14;100968.41;;;-0.62;72.97
17607;BME280;69222;52.242;20.980;2023-12-04T11:19:49;100975.53;;;-0.71;73.43
17607;BME280;69222;52.242;20.980;2023-12-04T11:22:18;100972.09;;;-0.73;73.91
17607;BME280;69222;52.242;20.980;2023-12-04T11:24:49;100964.72;;;-0.68;74.25
17607;BME280;69222;52.242;20.980;2023-12-04T11:27:20;100969.19;;;-0.63;73.55
17607;BME280;69222;52.242;20.980;2023-12-04T11:29:49;100973.63;;;-0.59;73.88
17607;BME280;69222;52.242;20.980;2023-12-04T11:32:18;100968.47;;;-0.60;72.58
17607;BME280;69222;52.242;20.980;2023-12-04T11:34:49;100967.63;;;-0.61;73.25
17607;BME280;69222;52.242;20.980;2023-12-04T11:37:19;100969.13;;;-0.64;72.85
17607;BME280;69222;52.242;20.980;2023-12-04T11:39:49;100960.16;;;-0.76;72.97
17607;BME280;69222;52.242;20.980;2023-12-04T11:42:22;100957.56;;;-0.77;73.11
17607;BME280;69222;52.242;20.980;2023-12-04T11:44:55;100961.59;;;-0.81;72.80
17607;BME280;69222;52.242;20.980;2023-12-04T11:47:24;100954.00;;;-0.81;72.68
17607;BME280;69222;52.242;20.980;2023-12-04T11:49:52;100958.31;;;-0.78;72.96
17607;BME280;69222;52.242;20.980;2023-12-04T11:52:32;100958.69;;;-0.70;72.60
17607;BME280;69222;52.242;20.980;2023-12-04T11:55:04;100952.63;;;-0.74;72.43
17607;BME280;69222;52.242;20.980;2023-12-04T11:57:34;100946.03;;;-0.70;72.35
17607;BME280;69222;52.242;20.980;2023-12-04T12:00:11;100947.31;;;-0.62;72.49
17607;BME280;69222;52.242;20.980;2023-12-04T12:02:47;100942.47;;;-0.58;72.16
17607;BME280;69222;52.242;20.980;2023-12-04T12:05:36;100945.91;;;-0.56;72.25
17607;BME280;69222;52.242;20.980;2023-12-04T12:08:07;100943.47;;;-0.54;72.03
17607;BME280;69222;52.242;20.980;2023-12-04T12:10:37;100942.88;;;-0.49;72.51
17607;BME280;69222;52.242;20.980;2023-12-04T12:13:05;100941.94;;;-0.51;71.80
17607;BME280;69222;52.242;20.980;2023-12-04T12:15:33;100941.09;;;-0.51;72.14
17607;BME280;69222;52.242;20.980;2023-12-04T12:18:01;100940.28;;;-0.50;72.22
17607;BME280;69222;52.242;20.980;2023-12-04T12:20:31;100940.50;;;-0.45;72.63
17607;BME280;69222;52.242;20.980;2023-12-04T12:22:59;100943.88;;;-0.45;72.30
17607;BME280;69222;52.242;20.980;2023-12-04T12:25:28;100941.50;;;-0.42;72.48
17607;BME280;69222;52.242;20.980;2023-12-04T12:28:02;100937.75;;;-0.50;72.30
17607;BME280;69222;52.242;20.980;2023-12-04T12:30:30;100941.75;;;-0.55;72.34
17607;BME280;69222;52.242;20.980;2023-12-04T12:32:58;100932.84;;;-0.65;72.92
17607;BME280;69222;52.242;20.980;2023-12-04T12:35:26;100936.53;;;-0.58;73.64
17607;BME280;69222;52.242;20.980;2023-12-04T12:37:55;100925.00;;;-0.52;73.53
17607;BME280;69222;52.242;20.980;2023-12-04T12:40:23;100926.47;;;-0.39;73.58
17607;BME280;69222;52.242;20.980;2023-12-04T12:42:51;100928.63;;;-0.29;73.21
17607;BME280;69222;52.242;20.980;2023-12-04T12:45:21;100923.19;;;-0.18;73.09
17607;BME280;69222;52.242;20.980;2023-12-04T12:47:50;100928.31;;;-0.17;72.92
17607;BME280;69222;52.242;20.980;2023-12-04T12:50:20;100912.84;;;-0.23;72.07